Time;durP1;ratioP1;P1;durP2;ratioP2;P2;SDS_P1;SDS_P2;PMS_P1;PMS_P2;Temp;Humidity;BMP_temperature;BMP_pressure;BME280_temperature;BME280_humidity;BME280_pressure;Samples;Min_cycle;Max_cycle;Signal;HPM_P1;HPM_P2
2023/06/11 04:00:49;;;;;;;4.27;0.97;;;14.90;99.90;;;;;;5739628;23;20569;-71
2023/06/11 04:03:15;;;;;;;0.70;0.70;;;15.00;99.90;;;;;;4991751;28;20943;-71
2023/06/11 04:05:42;;;;;;;1.10;1.10;;;15.00;99.90;;;;;;4986717;28;20478;-71
2023/06/11 04:08:09;;;;;;;0.60;0.60;;;15.00;99.90;;;;;;4989401;28;20466;-71
2023/06/11 04:10:36;;;;;;;0.80;0.80;;;15.00;99.90;;;;;;4990329;28;20494;-71
2023/06/11 04:13:02;;;;;;;0.97;0.97;;;15.00;99.90;;;;;;4966251;28;20495;-72
2023/06/11 04:15:29;;;;;;;0.73;0.73;;;15.10;99.90;;;;;;5001802;23;20510;-77
2023/06/11 04:17:57;;;;;;;0.50;0.50;;;15.10;99.90;;;;;;4987558;28;20518;-76
2023/06/11 04:20:24;;;;;;;1.20;0.83;;;15.10;99.90;;;;;;4983737;28;20476;-77
2023/06/11 04:22:51;;;;;;;1.27;0.90;;;15.20;99.90;;;;;;4991228;28;20785;-79
2023/06/11 04:25:18;;;;;;;0.73;0.73;;;15.60;99.90;;;;;;4992527;28;20482;-77
2023/06/11 04:27:46;;;;;;;4.83;1.53;;;16.20;99.90;;;;;;4990056;28;20461;-76
2023/06/11 04:30:14;;;;;;;1.07;1.07;;;16.80;99.90;;;;;;4983191;28;20474;-76
2023/06/11 04:32:41;;;;;;;0.50;0.50;;;17.30;99.90;;;;;;4992874;28;20529;-76
2023/06/11 04:35:10;;;;;;;1.90;0.70;;;17.90;99.90;;;;;;4993546;28;20483;-77
2023/06/11 04:37:40;;;;;;;1.30;1.30;;;18.20;99.90;;;;;;4992603;28;20977;-76
2023/06/11 04:40:09;;;;;;;1.03;1.00;;;18.60;99.90;;;;;;4990889;28;20470;-77
2023/06/11 04:42:37;;;;;;;0.80;0.80;;;18.80;99.90;;;;;;4990633;28;20483;-77
2023/06/11 04:45:04;;;;;;;1.90;1.13;;;19.20;99.90;;;;;;4992195;28;20483;-77
2023/06/11 04:47:33;;;;;;;0.80;0.80;;;19.50;99.90;;;;;;4992612;28;20490;-77
2023/06/11 04:50:03;;;;;;;0.70;0.70;;;19.80;99.90;;;;;;4991991;28;20560;-77
2023/06/11 04:52:32;;;;;;;1.00;1.00;;;19.90;99.90;;;;;;4983100;28;21125;-77
2023/06/11 04:55:00;;;;;;;1.27;1.27;;;20.00;99.90;;;;;;4973070;28;20493;-77
2023/06/11 04:57:26;;;;;;;1.30;1.30;;;20.20;99.90;;;;;;4981493;28;21004;-77
2023/06/11 04:59:53;;;;;;;2.77;1.07;;;20.50;99.90;;;;;;4991985;28;20494;-77
2023/06/11 05:02:21;;;;;;;0.70;0.70;;;20.70;99.90;;;;;;4993413;28;20980;-77
2023/06/11 05:04:49;;;;;;;0.90;0.90;;;20.90;99.90;;;;;;4992161;28;20490;-77
2023/06/11 05:07:17;;;;;;;1.00;0.90;;;21.00;99.90;;;;;;4996257;28;20612;-78
2023/06/11 05:09:45;;;;;;;0.70;0.70;;;21.10;99.90;;;;;;4991316;28;20546;-77
2023/06/11 05:12:12;;;;;;;0.77;0.77;;;21.30;99.90;;;;;;4984658;28;20486;-77
2023/06/11 05:14:39;;;;;;;0.90;0.90;;;21.60;99.90;;;;;;4990651;28;20643;-78
2023/06/11 05:17:05;;;;;;;0.83;0.83;;;21.80;99.90;;;;;;4997718;28;20575;-78
2023/06/11 05:19:32;;;;;;;1.40;1.40;;;22.10;99.90;;;;;;4996308;28;20477;-78
2023/06/11 05:21:59;;;;;;;1.20;1.20;;;22.40;99.90;;;;;;4996457;28;20472;-78
2023/06/11 05:24:29;;;;;;;1.20;0.87;;;22.20;99.90;;;;;;4996632;28;20492;-78
2023/06/11 05:26:59;;;;;;;0.80;0.80;;;22.20;99.90;;;;;;4991702;28;20469;-78
2023/06/11 05:29:26;;;;;;;1.43;1.43;;;22.10;99.90;;;;;;4994361;28;20468;-78
2023/06/11 05:31:56;;;;;;;1.43;1.10;;;22.00;99.90;;;;;;4997594;28;20465;-78
2023/06/11 05:34:25;;;;;;;1.27;1.27;;;22.10;99.90;;;;;;4995332;28;21045;-78
2023/06/11 05:36:52;;;;;;;2.83;0.93;;;22.10;99.90;;;;;;4996897;28;20859;-78
2023/06/11 05:39:19;;;;;;;0.97;0.97;;;22.40;99.90;;;;;;4996249;28;20469;-78
2023/06/11 05:41:46;;;;;;;0.80;0.80;;;22.80;99.90;;;;;;4998473;28;20466;-78
2023/06/11 05:44:14;;;;;;;1.13;1.13;;;23.30;99.90;;;;;;4993236;28;20499;-78
2023/06/11 05:46:41;;;;;;;1.33;1.33;;;23.40;99.10;;;;;;4997212;28;20469;-78
2023/06/11 05:49:08;;;;;;;6.10;2.20;;;23.10;99.30;;;;;;4993424;28;20971;-78
2023/06/11 05:51:35;;;;;;;1.40;1.40;;;23.10;99.20;;;;;;4993366;28;20840;-78
2023/06/11 05:54:03;;;;;;;1.30;1.30;;;23.00;99.30;;;;;;4991773;28;20492;-78
2023/06/11 05:56:30;;;;;;;1.67;1.67;;;23.20;98.80;;;;;;4993536;28;20565;-76
2023/06/11 05:58:56;;;;;;;1.30;1.30;;;23.30;98.80;;;;;;4996057;28;20483;-78
2023/06/11 06:01:25;;;;;;;1.37;1.33;;;23.50;98.40;;;;;;4996510;28;20594;-78
2023/06/11 06:03:51;;;;;;;1.13;1.03;;;23.60;97.90;;;;;;4998091;28;20490;-79
2023/06/11 06:06:18;;;;;;;1.57;1.50;;;23.50;97.60;;;;;;4996784;28;20467;-79
2023/06/11 06:08:45;;;;;;;1.33;1.33;;;23.50;97.90;;;;;;4996974;28;20464;-79
2023/06/11 06:11:12;;;;;;;2.13;2.03;;;23.60;97.80;;;;;;4996459;28;20467;-78
2023/06/11 06:13:39;;;;;;;2.10;1.10;;;23.90;97.50;;;;;;4991242;28;20485;-79
2023/06/11 06:16:07;;;;;;;1.67;1.57;;;24.30;96.50;;;;;;4999107;28;20474;-78
2023/06/11 06:18:37;;;;;;;1.07;1.07;;;24.50;95.60;;;;;;4983002;28;20466;-78
2023/06/11 06:21:03;;;;;;;1.33;1.33;;;24.70;95.80;;;;;;4991745;28;20474;-78
2023/06/11 06:23:30;;;;;;;1.23;1.23;;;24.80;94.90;;;;;;4994074;28;20476;-77
2023/06/11 06:25:57;;;;;;;1.63;1.63;;;24.60;95.00;;;;;;4994556;28;20482;-77
2023/06/11 06:28:24;;;;;;;1.30;1.30;;;24.90;95.40;;;;;;4995652;28;20835;-77
2023/06/11 06:30:50;;;;;;;1.73;1.63;;;25.30;94.70;;;;;;4993648;28;20873;-78
2023/06/11 06:33:17;;;;;;;1.40;1.20;;;25.50;94.00;;;;;;4996675;28;20465;-78
2023/06/11 06:35:45;;;;;;;1.27;1.27;;;25.50;94.20;;;;;;4982762;28;20503;-78
2023/06/11 06:38:12;;;;;;;1.30;1.30;;;25.80;93.70;;;;;;4984878;28;20467;-78
2023/06/11 06:40:38;;;;;;;1.47;1.40;;;26.00;93.20;;;;;;4988390;28;20467;-77
2023/06/11 06:43:05;;;;;;;1.30;1.30;;;26.20;92.90;;;;;;4988005;28;20475;-77
2023/06/11 06:45:33;;;;;;;1.43;1.30;;;26.60;92.80;;;;;;4984935;28;20824;-77
2023/06/11 06:48:00;;;;;;;1.20;1.20;;;27.00;91.70;;;;;;4989993;28;20771;-77
2023/06/11 06:50:26;;;;;;;1.20;1.20;;;26.90;91.60;;;;;;4990313;28;20470;-77
2023/06/11 06:52:55;;;;;;;0.97;0.97;;;27.00;91.10;;;;;;4992677;28;20470;-77
2023/06/11 06:55:21;;;;;;;1.30;1.20;;;27.20;90.80;;;;;;4991905;28;20508;-77
2023/06/11 06:57:48;;;;;;;1.00;1.00;;;27.60;88.40;;;;;;4991787;28;20471;-77
2023/06/11 07:00:16;;;;;;;1.30;1.30;;;27.30;87.70;;;;;;4988186;28;20782;-77
2023/06/11 07:02:42;;;;;;;0.87;0.87;;;27.20;88.20;;;;;;4992266;28;20471;-77
2023/06/11 07:05:10;;;;;;;0.90;0.90;;;27.30;87.90;;;;;;4995831;28;20586;-77
2023/06/11 07:07:36;;;;;;;3.20;3.00;;;27.10;87.70;;;;;;4995625;28;20481;-75
2023/06/11 07:10:05;;;;;;;1.30;1.30;;;27.00;86.00;;;;;;4994920;28;20548;-75
2023/06/11 07:12:32;;;;;;;1.00;1.00;;;27.00;87.10;;;;;;4993632;28;20490;-76
2023/06/11 07:14:58;;;;;;;1.23;1.23;;;26.90;85.60;;;;;;4987867;28;20486;-76
2023/06/11 07:17:26;;;;;;;2.20;1.10;;;26.90;87.10;;;;;;4994228;28;20931;-76
2023/06/11 07:19:54;;;;;;;1.43;1.30;;;27.40;87.40;;;;;;4995198;28;20462;-77
2023/06/11 07:22:21;;;;;;;1.33;1.23;;;28.00;85.20;;;;;;4994979;28;20529;-76
2023/06/11 07:24:48;;;;;;;0.60;0.60;;;28.20;81.40;;;;;;4990571;28;20975;-76
2023/06/11 07:27:16;;;;;;;1.37;1.37;;;28.20;82.00;;;;;;4985645;28;20498;-76
2023/06/11 07:29:42;;;;;;;1.20;1.20;;;28.40;80.20;;;;;;4991519;28;20493;-77
2023/06/11 07:32:10;;;;;;;1.10;1.10;;;28.60;82.50;;;;;;4992637;28;20475;-77
2023/06/11 07:34:36;;;;;;;1.17;1.17;;;29.10;83.70;;;;;;4987375;28;20486;-78
2023/06/11 07:37:04;;;;;;;1.40;1.40;;;29.60;81.80;;;;;;4994298;28;20470;-76
2023/06/11 07:39:31;;;;;;;1.07;1.07;;;29.90;80.60;;;;;;4994662;28;20466;-77
2023/06/11 07:41:58;;;;;;;1.10;1.10;;;30.20;79.70;;;;;;4994589;28;20470;-76
2023/06/11 07:44:26;;;;;;;1.07;1.00;;;30.30;78.20;;;;;;4993246;28;20482;-76
2023/06/11 07:46:52;;;;;;;1.07;1.07;;;30.40;78.60;;;;;;4994228;28;20467;-76
2023/06/11 07:49:19;;;;;;;1.13;1.13;;;30.10;77.10;;;;;;4989673;28;20482;-76
2023/06/11 07:51:46;;;;;;;1.47;1.47;;;29.80;78.00;;;;;;4994071;28;20489;-76
2023/06/11 07:54:13;;;;;;;1.10;1.10;;;29.90;77.50;;;;;;4994179;28;20575;-76
2023/06/11 07:56:40;;;;;;;1.17;1.17;;;30.00;76.30;;;;;;4995921;28;20904;-77
2023/06/11 07:59:06;;;;;;;0.90;0.90;;;30.10;77.70;;;;;;4992022;28;20546;-76
2023/06/11 08:01:36;;;;;;;1.03;1.03;;;30.30;77.40;;;;;;4989374;28;20479;-77
2023/06/11 08:04:02;;;;;;;1.20;1.20;;;30.20;76.10;;;;;;4993987;28;20494;-77
2023/06/11 08:06:29;;;;;;;0.80;0.80;;;30.20;74.30;;;;;;4993427;28;20471;-77
2023/06/11 08:08:56;;;;;;;1.30;1.30;;;29.90;75.40;;;;;;4991739;28;21177;-77
2023/06/11 08:11:23;;;;;;;1.10;1.10;;;30.20;73.60;;;;;;4977939;28;20553;-77
2023/06/11 08:13:50;;;;;;;1.00;1.00;;;30.20;72.60;;;;;;4993657;28;20466;-77
2023/06/11 08:16:18;;;;;;;1.43;1.43;;;29.90;72.60;;;;;;4993460;28;20598;-76
2023/06/11 08:18:46;;;;;;;1.23;1.23;;;29.80;72.00;;;;;;4993739;28;21025;-76
2023/06/11 08:21:13;;;;;;;1.30;1.30;;;29.50;73.60;;;;;;4993713;28;20833;-76
2023/06/11 08:23:40;;;;;;;1.27;1.17;;;29.60;74.40;;;;;;4990842;28;20458;-79
2023/06/11 08:26:07;;;;;;;1.40;1.40;;;29.70;73.70;;;;;;4992514;28;20466;-77
2023/06/11 08:28:34;;;;;;;1.13;1.13;;;29.80;72.30;;;;;;4994327;28;20462;-77
2023/06/11 08:31:01;;;;;;;1.50;1.50;;;29.40;72.30;;;;;;4987755;28;20566;-77
2023/06/11 08:33:28;;;;;;;1.13;1.13;;;29.50;74.00;;;;;;4987606;28;20469;-76
2023/06/11 08:35:56;;;;;;;1.27;1.20;;;29.40;73.30;;;;;;4998414;28;20490;-76
2023/06/11 08:38:22;;;;;;;1.47;1.47;;;29.40;73.70;;;;;;5004238;28;20463;-76
2023/06/11 08:40:49;;;;;;;1.57;1.57;;;29.30;72.90;;;;;;5010450;28;21000;-75
2023/06/11 08:43:16;;;;;;;1.00;1.00;;;29.00;73.00;;;;;;5002897;28;20477;-76
2023/06/11 08:45:44;;;;;;;1.70;1.70;;;29.00;73.70;;;;;;5004552;28;20483;-76
2023/06/11 08:48:12;;;;;;;1.27;1.27;;;29.00;72.10;;;;;;4995514;28;20459;-76
2023/06/11 08:50:39;;;;;;;1.07;1.07;;;29.40;72.60;;;;;;4994673;28;20982;-76
2023/06/11 08:53:08;;;;;;;1.57;1.57;;;29.60;72.20;;;;;;4975258;28;20460;-76
2023/06/11 08:55:35;;;;;;;1.23;1.23;;;29.70;69.80;;;;;;4978743;28;20490;-76
2023/06/11 08:58:02;;;;;;;1.80;1.70;;;29.20;71.10;;;;;;4993245;28;20471;-76
2023/06/11 09:00:28;;;;;;;1.20;1.20;;;29.00;72.20;;;;;;4983402;28;20470;-76
2023/06/11 09:02:55;;;;;;;1.40;1.40;;;29.00;75.10;;;;;;4995358;28;20471;-76
2023/06/11 09:05:23;;;;;;;1.40;1.40;;;29.00;74.80;;;;;;4996062;28;21027;-77
2023/06/11 09:07:50;;;;;;;1.23;1.20;;;28.90;71.70;;;;;;4994419;28;20524;-76
2023/06/11 09:10:19;;;;;;;1.13;1.13;;;29.00;72.30;;;;;;4975496;28;20468;-76
2023/06/11 09:12:46;;;;;;;1.33;1.33;;;29.00;73.70;;;;;;4995131;28;20458;-74
2023/06/11 09:15:14;;;;;;;1.90;1.10;;;28.60;69.80;;;;;;4989335;28;20495;-74
2023/06/11 09:17:42;;;;;;;1.33;1.30;;;28.40;74.40;;;;;;4986498;28;20479;-73
2023/06/11 09:20:11;;;;;;;1.80;1.70;;;28.50;75.50;;;;;;4988244;28;20506;-73
2023/06/11 09:22:39;;;;;;;1.43;1.43;;;28.60;76.30;;;;;;4982710;28;20475;-73
2023/06/11 09:25:08;;;;;;;1.10;1.10;;;28.80;76.10;;;;;;4986859;28;21046;-74
2023/06/11 09:27:37;;;;;;;1.60;1.60;;;28.60;75.00;;;;;;4992420;28;20485;-74
2023/06/11 09:30:08;;;;;;;1.40;1.40;;;28.50;73.90;;;;;;4992262;28;20812;-74
2023/06/11 09:32:39;;;;;;;1.70;1.70;;;28.30;72.00;;;;;;4990716;28;20533;-74
2023/06/11 09:35:08;;;;;;;1.63;1.53;;;28.20;73.20;;;;;;4989510;28;20620;-74
2023/06/11 09:37:41;;;;;;;3.40;2.10;;;28.10;74.00;;;;;;4992399;28;20462;-76
2023/06/11 09:40:10;;;;;;;1.50;1.50;;;28.00;75.30;;;;;;4991274;28;20956;-76
2023/06/11 09:42:40;;;;;;;1.67;1.67;;;28.00;73.90;;;;;;4985001;28;20463;-75
2023/06/11 09:45:16;;;;;;;1.50;1.40;;;28.00;73.10;;;;;;4991474;28;20934;-75
2023/06/11 09:47:43;;;;;;;1.30;1.30;;;27.90;73.90;;;;;;4990001;28;20462;-75
2023/06/11 09:50:11;;;;;;;1.50;1.40;;;27.80;68.90;;;;;;4992480;28;20502;-73
2023/06/11 09:52:39;;;;;;;1.40;1.40;;;27.80;68.60;;;;;;4987490;28;20543;-75
2023/06/11 09:55:08;;;;;;;1.00;1.00;;;27.70;66.20;;;;;;4986933;28;20570;-74
2023/06/11 09:57:37;;;;;;;1.37;1.37;;;27.70;65.70;;;;;;4991170;28;20583;-76
2023/06/11 10:00:09;;;;;;;0.93;0.93;;;27.60;63.00;;;;;;4991294;28;20471;-74
2023/06/11 10:02:37;;;;;;;1.53;1.53;;;27.60;63.80;;;;;;4977766;28;20476;-75
2023/06/11 10:05:05;;;;;;;1.90;1.80;;;27.50;63.90;;;;;;4990234;28;20489;-75
2023/06/11 10:07:33;;;;;;;1.30;1.30;;;27.40;66.10;;;;;;4992011;28;20878;-75
2023/06/11 10:10:00;;;;;;;1.27;1.27;;;27.40;63.50;;;;;;4991058;28;20861;-75
2023/06/11 10:12:32;;;;;;;1.63;1.63;;;27.40;62.90;;;;;;4979016;28;20475;-75
2023/06/11 10:14:59;;;;;;;1.20;1.20;;;27.40;62.50;;;;;;4985234;28;20494;-74
2023/06/11 10:17:27;;;;;;;1.50;1.50;;;27.30;62.30;;;;;;5011687;23;20473;-73
2023/06/11 10:19:55;;;;;;;0.93;0.93;;;27.30;62.70;;;;;;4970631;28;20494;-72
2023/06/11 10:22:22;;;;;;;1.43;1.43;;;27.40;64.20;;;;;;4966184;28;20499;-71
2023/06/11 10:25:00;;;;;;;1.37;1.37;;;27.40;63.50;;;;;;4965520;28;20514;-71
2023/06/11 10:27:36;;;;;;;0.90;0.83;;;27.40;66.10;;;;;;4970511;28;20550;-71
2023/06/11 10:30:03;;;;;;;1.30;1.30;;;27.40;65.70;;;;;;4952349;28;20544;-72
2023/06/11 10:32:31;;;;;;;1.40;1.30;;;27.50;64.00;;;;;;4954715;28;20531;-72
2023/06/11 10:35:00;;;;;;;1.80;1.80;;;27.60;65.50;;;;;;4963018;28;20515;-71
2023/06/11 10:37:30;;;;;;;1.37;1.37;;;27.60;63.50;;;;;;4949778;28;20468;-72
2023/06/11 10:39:57;;;;;;;1.73;1.73;;;27.60;64.30;;;;;;4951949;29;20816;-72
2023/06/11 10:42:24;;;;;;;1.13;1.13;;;27.60;64.80;;;;;;4954835;28;20560;-72
2023/06/11 10:44:51;;;;;;;1.03;1.03;;;27.40;64.60;;;;;;4953700;29;20496;-73
2023/06/11 10:47:18;;;;;;;1.93;1.83;;;27.40;64.50;;;;;;4952308;28;20476;-72
2023/06/11 10:49:46;;;;;;;1.67;1.67;;;27.40;62.70;;;;;;4957049;28;20486;-73
2023/06/11 10:52:13;;;;;;;1.80;1.70;;;27.40;63.50;;;;;;4953723;28;20469;-73
2023/06/11 10:54:43;;;;;;;1.50;1.50;;;27.50;64.40;;;;;;4942496;28;20889;-73
2023/06/11 10:57:10;;;;;;;1.37;1.27;;;27.50;64.70;;;;;;4952234;29;20925;-73
2023/06/11 10:59:38;;;;;;;1.30;1.30;;;27.60;65.00;;;;;;4951742;29;20600;-72
2023/06/11 11:02:05;;;;;;;1.50;1.43;;;27.60;63.80;;;;;;4950562;29;20490;-72
2023/06/11 11:04:32;;;;;;;1.00;1.00;;;27.60;63.90;;;;;;4951468;29;20483;-73
2023/06/11 11:07:08;;;;;;;1.77;1.77;;;27.80;63.80;;;;;;4952432;28;20556;-74
2023/06/11 11:09:35;;;;;;;2.20;2.00;;;27.90;63.10;;;;;;4950807;28;20498;-74
2023/06/11 11:12:03;;;;;;;1.40;1.40;;;27.90;61.80;;;;;;4949297;29;20472;-70
2023/06/11 11:14:31;;;;;;;1.97;1.87;;;27.70;60.40;;;;;;4951313;28;20571;-72
2023/06/11 11:17:00;;;;;;;1.60;1.60;;;27.70;60.30;;;;;;4942090;28;20495;-72
2023/06/11 11:19:27;;;;;;;1.53;1.53;;;27.80;61.60;;;;;;4951170;29;20499;-71
2023/06/11 11:21:55;;;;;;;1.30;1.30;;;27.90;60.80;;;;;;4945684;29;20474;-71
2023/06/11 11:24:23;;;;;;;1.40;1.40;;;27.70;59.90;;;;;;4957029;28;20498;-72
2023/06/11 11:26:50;;;;;;;1.10;1.10;;;27.70;61.00;;;;;;4951663;28;20461;-72
2023/06/11 11:29:16;;;;;;;1.00;1.00;;;27.80;58.60;;;;;;4949431;28;20997;-72
2023/06/11 11:31:44;;;;;;;1.90;1.77;;;27.90;58.10;;;;;;4951334;28;20477;-73
2023/06/11 11:34:11;;;;;;;2.20;1.70;;;27.90;58.70;;;;;;4947895;28;20577;-72
2023/06/11 11:36:38;;;;;;;1.20;1.20;;;27.70;58.30;;;;;;4950703;29;20495;-72
2023/06/11 11:39:11;;;;;;;1.40;1.30;;;27.70;58.10;;;;;;4951247;28;20521;-72
2023/06/11 11:41:47;;;;;;;1.60;1.50;;;27.80;58.90;;;;;;4962925;28;20577;-72
2023/06/11 11:44:15;;;;;;;1.83;1.83;;;27.80;58.00;;;;;;4950918;28;20473;-72
2023/06/11 11:46:42;;;;;;;1.40;1.40;;;27.90;57.90;;;;;;4951524;29;20566;-72
2023/06/11 11:49:10;;;;;;;4.40;1.27;;;27.90;57.40;;;;;;4946316;28;20493;-71
2023/06/11 11:51:40;;;;;;;1.87;1.77;;;28.10;57.10;;;;;;4954922;29;20469;-73
2023/06/11 11:54:07;;;;;;;1.00;1.00;;;28.20;57.20;;;;;;4948319;28;20483;-71
2023/06/11 11:56:35;;;;;;;2.13;1.97;;;28.10;57.80;;;;;;4954650;29;20485;-72
2023/06/11 11:59:03;;;;;;;1.10;1.10;;;28.20;58.20;;;;;;4969643;28;20774;-71
2023/06/11 12:01:37;;;;;;;1.00;1.00;;;28.20;56.90;;;;;;4964515;28;20475;-70
2023/06/11 12:04:05;;;;;;;1.43;1.40;;;28.20;57.40;;;;;;4953055;29;20863;-71
2023/06/11 12:06:32;;;;;;;1.77;1.67;;;28.40;58.00;;;;;;4954224;28;20469;-71
2023/06/11 12:08:58;;;;;;;1.20;1.20;;;28.50;56.60;;;;;;4954237;28;20486;-71
2023/06/11 12:11:25;;;;;;;1.43;1.43;;;28.30;55.80;;;;;;4950792;29;20942;-71
2023/06/11 12:13:52;;;;;;;1.37;1.37;;;28.20;56.20;;;;;;4953431;28;20466;-72
2023/06/11 12:16:23;;;;;;;1.27;1.23;;;28.10;55.80;;;;;;4971171;28;20893;-71
2023/06/11 12:18:50;;;;;;;1.10;1.10;;;28.10;55.40;;;;;;4960162;28;20625;-72
2023/06/11 12:21:17;;;;;;;1.03;1.03;;;28.10;55.20;;;;;;4951277;28;20483;-71
2023/06/11 12:23:44;;;;;;;1.53;1.53;;;28.20;55.70;;;;;;4953834;29;20486;-71
2023/06/11 12:26:11;;;;;;;1.80;1.80;;;28.30;56.60;;;;;;4954449;29;20486;-73
2023/06/11 12:28:38;;;;;;;1.57;1.47;;;28.50;56.20;;;;;;4954556;28;20494;-71
2023/06/11 12:31:04;;;;;;;1.87;1.77;;;28.40;56.90;;;;;;4954360;29;20518;-71
2023/06/11 12:33:32;;;;;;;1.33;1.33;;;28.40;55.80;;;;;;4953747;28;20468;-72
2023/06/11 12:35:59;;;;;;;1.20;1.20;;;28.40;56.10;;;;;;4951525;28;20496;-72
2023/06/11 12:38:26;;;;;;;1.33;1.33;;;28.30;55.80;;;;;;4954755;29;20502;-71
2023/06/11 12:40:53;;;;;;;1.23;1.23;;;28.40;57.00;;;;;;4954620;29;20471;-72
2023/06/11 12:43:20;;;;;;;1.67;1.60;;;28.30;55.70;;;;;;4951575;28;20934;-71
2023/06/11 12:45:47;;;;;;;1.60;1.60;;;28.20;54.90;;;;;;4950189;29;20465;-71
2023/06/11 12:48:14;;;;;;;1.20;1.20;;;28.10;55.20;;;;;;4950653;28;20490;-71
2023/06/11 12:50:42;;;;;;;1.40;1.40;;;28.10;54.90;;;;;;4953810;28;20564;-74
2023/06/11 12:53:10;;;;;;;1.83;1.83;;;28.00;54.30;;;;;;4951879;29;20473;-72
2023/06/11 12:55:37;;;;;;;1.17;1.17;;;28.00;53.70;;;;;;4952037;29;20889;-71
2023/06/11 12:58:05;;;;;;;1.20;1.20;;;27.90;53.50;;;;;;4951152;28;20497;-72
2023/06/11 13:00:31;;;;;;;1.40;1.40;;;27.80;52.00;;;;;;4945960;29;20456;-72
2023/06/11 13:02:58;;;;;;;1.40;1.40;;;27.70;53.10;;;;;;4952937;29;20228;-71
2023/06/11 13:05:25;;;;;;;1.37;1.37;;;27.80;53.40;;;;;;4953972;28;20509;-71
2023/06/11 13:07:53;;;;;;;1.70;1.60;;;27.80;52.20;;;;;;4954574;28;20492;-70
2023/06/11 13:10:23;;;;;;;1.20;1.20;;;27.80;52.50;;;;;;4953828;29;20504;-71
2023/06/11 13:12:51;;;;;;;2.90;1.30;;;27.90;52.70;;;;;;4944965;28;20527;-72
2023/06/11 13:15:18;;;;;;;1.40;1.40;;;27.90;52.60;;;;;;4953068;28;20931;-72
2023/06/11 13:17:45;;;;;;;1.23;1.23;;;28.00;53.70;;;;;;4953165;28;21013;-72
2023/06/11 13:20:12;;;;;;;1.57;1.57;;;28.00;52.30;;;;;;4954189;29;20461;-72
2023/06/11 13:22:38;;;;;;;1.27;1.27;;;28.00;52.00;;;;;;4953301;28;20475;-71
2023/06/11 13:25:08;;;;;;;1.03;1.03;;;28.00;51.70;;;;;;4953511;29;20472;-72
2023/06/11 13:27:35;;;;;;;1.17;1.17;;;28.00;52.10;;;;;;4953503;28;20498;-71
2023/06/11 13:30:02;;;;;;;1.67;1.57;;;28.00;52.10;;;;;;4950567;28;20872;-72
2023/06/11 13:32:29;;;;;;;1.73;1.63;;;28.10;51.60;;;;;;4952738;28;20965;-72
2023/06/11 13:34:55;;;;;;;1.43;1.43;;;28.20;50.60;;;;;;4953610;28;20465;-72
2023/06/11 13:37:22;;;;;;;1.33;1.33;;;28.10;50.60;;;;;;4952511;28;20668;-72
2023/06/11 13:39:49;;;;;;;1.40;1.23;;;28.20;51.40;;;;;;4953375;28;20520;-71
2023/06/11 13:42:17;;;;;;;1.40;1.40;;;28.10;51.40;;;;;;4952969;29;20845;-72
2023/06/11 13:44:44;;;;;;;2.03;1.93;;;28.00;51.20;;;;;;4952716;29;20456;-72
2023/06/11 13:47:11;;;;;;;1.53;1.53;;;28.10;50.90;;;;;;4951500;28;20462;-73
2023/06/11 13:49:38;;;;;;;1.20;1.10;;;28.10;50.10;;;;;;4953240;28;21002;-72
2023/06/11 13:52:06;;;;;;;1.10;1.10;;;27.90;50.10;;;;;;4941587;28;20483;-72
2023/06/11 13:54:33;;;;;;;1.30;1.30;;;27.90;49.40;;;;;;4946422;28;20986;-71
2023/06/11 13:57:00;;;;;;;1.37;1.37;;;27.90;49.70;;;;;;4951383;28;20856;-71
2023/06/11 13:59:28;;;;;;;1.50;1.30;;;28.00;49.10;;;;;;4951305;28;20507;-70
2023/06/11 14:02:00;;;;;;;1.47;1.47;;;28.00;49.30;;;;;;4948529;28;20474;-70
2023/06/11 14:04:27;;;;;;;1.83;1.63;;;28.20;49.70;;;;;;4951471;29;20466;-70
2023/06/11 14:06:54;;;;;;;1.63;1.53;;;28.30;49.70;;;;;;4953007;29;20953;-70
2023/06/11 14:09:21;;;;;;;1.17;1.17;;;28.40;49.20;;;;;;4948547;28;20504;-71
2023/06/11 14:11:47;;;;;;;1.10;1.10;;;28.50;49.00;;;;;;4950497;28;20479;-71
2023/06/11 14:14:14;;;;;;;1.10;1.10;;;28.40;49.20;;;;;;4950689;28;20485;-71
2023/06/11 14:16:42;;;;;;;0.70;0.70;;;28.30;48.00;;;;;;4948466;28;20500;-71
2023/06/11 14:19:10;;;;;;;1.33;1.33;;;28.30;47.90;;;;;;4949861;28;21006;-72
2023/06/11 14:21:37;;;;;;;0.90;0.90;;;28.30;48.80;;;;;;4952090;29;20832;-73
2023/06/11 14:24:04;;;;;;;0.93;0.93;;;28.40;48.70;;;;;;4951347;29;20811;-72
2023/06/11 14:26:30;;;;;;;1.00;1.00;;;28.40;47.70;;;;;;4951498;28;20470;-72
2023/06/11 14:28:57;;;;;;;1.03;1.03;;;28.20;47.90;;;;;;4950034;28;20495;-71
2023/06/11 14:31:24;;;;;;;1.40;1.40;;;28.30;48.80;;;;;;4951430;28;20952;-72
2023/06/11 14:33:52;;;;;;;1.20;1.20;;;28.30;49.10;;;;;;4952459;29;20851;-72
2023/06/11 14:36:19;;;;;;;0.83;0.83;;;28.30;49.20;;;;;;4952821;29;20497;-72
2023/06/11 14:38:45;;;;;;;1.60;1.50;;;28.40;49.10;;;;;;4953553;29;20497;-72
2023/06/11 14:41:13;;;;;;;0.93;0.93;;;28.60;48.60;;;;;;4942720;28;20469;-71
2023/06/11 14:43:39;;;;;;;1.10;1.10;;;28.60;47.90;;;;;;4953185;28;20476;-72
2023/06/11 14:46:06;;;;;;;1.00;1.00;;;28.60;47.40;;;;;;4953017;28;20480;-72
2023/06/11 14:48:33;;;;;;;1.10;1.10;;;28.50;47.90;;;;;;4952827;28;20498;-72
2023/06/11 14:51:05;;;;;;;1.20;1.20;;;28.40;47.80;;;;;;4960059;28;20467;-73
2023/06/11 14:53:32;;;;;;;1.00;1.00;;;28.30;47.50;;;;;;4949711;28;20465;-72
2023/06/11 14:55:59;;;;;;;1.10;1.10;;;28.40;48.50;;;;;;4951468;29;20480;-71
2023/06/11 14:58:25;;;;;;;1.30;1.30;;;28.60;48.20;;;;;;4951491;29;20511;-71
2023/06/11 15:00:52;;;;;;;1.70;1.33;;;28.70;47.80;;;;;;4951762;28;20497;-72
2023/06/11 15:03:19;;;;;;;1.20;1.20;;;28.80;48.10;;;;;;4950469;28;20465;-73
2023/06/11 15:05:46;;;;;;;0.90;0.90;;;28.80;47.80;;;;;;4951376;28;20831;-71
2023/06/11 15:08:14;;;;;;;1.27;1.27;;;28.70;48.50;;;;;;4952323;28;20562;-71
2023/06/11 15:10:41;;;;;;;1.20;1.20;;;28.90;48.10;;;;;;4950010;29;20561;-72
2023/06/11 15:13:08;;;;;;;1.03;1.03;;;28.70;47.80;;;;;;4943095;29;20470;-71
2023/06/11 15:15:34;;;;;;;1.20;1.20;;;28.60;47.80;;;;;;4947650;28;20493;-73
2023/06/11 15:18:01;;;;;;;1.47;1.47;;;28.60;49.10;;;;;;4951266;28;20523;-72
2023/06/11 15:20:28;;;;;;;1.37;1.27;;;28.80;47.80;;;;;;4953892;28;20460;-71
2023/06/11 15:22:54;;;;;;;1.30;1.30;;;28.90;47.70;;;;;;4951426;28;20473;-72
2023/06/11 15:25:22;;;;;;;1.40;0.90;;;28.90;47.80;;;;;;4955219;29;20480;-71
2023/06/11 15:27:50;;;;;;;1.47;1.47;;;28.90;48.00;;;;;;4952105;28;20498;-72
2023/06/11 15:30:17;;;;;;;1.40;1.40;;;28.80;47.60;;;;;;4955533;28;20492;-72
2023/06/11 15:32:44;;;;;;;1.53;1.10;;;28.70;47.30;;;;;;4955547;28;20536;-71
2023/06/11 15:35:11;;;;;;;1.20;1.20;;;28.90;48.20;;;;;;4954530;29;20910;-74
2023/06/11 15:37:38;;;;;;;1.47;1.47;;;28.80;47.30;;;;;;4953546;28;20488;-72
2023/06/11 15:40:07;;;;;;;1.47;1.47;;;28.80;47.00;;;;;;4956913;28;20608;-73
2023/06/11 15:42:35;;;;;;;0.90;0.90;;;28.90;48.20;;;;;;4954149;29;20473;-73
2023/06/11 15:45:02;;;;;;;1.00;1.00;;;28.60;46.20;;;;;;4956176;28;20897;-73
2023/06/11 15:47:29;;;;;;;0.90;0.90;;;28.70;46.60;;;;;;4966072;28;20467;-73
2023/06/11 15:49:56;;;;;;;1.80;1.10;;;28.60;46.40;;;;;;4954877;29;20488;-72
2023/06/11 15:52:22;;;;;;;1.60;1.60;;;28.50;47.10;;;;;;4954592;28;20484;-72
2023/06/11 15:54:49;;;;;;;1.50;1.50;;;28.60;46.80;;;;;;4954551;29;20466;-72
2023/06/11 15:57:17;;;;;;;1.17;1.17;;;28.80;46.30;;;;;;4954044;29;20492;-72
2023/06/11 15:59:45;;;;;;;1.27;1.27;;;28.80;45.60;;;;;;4954596;29;20595;-72
2023/06/11 16:02:12;;;;;;;0.80;0.80;;;28.70;45.90;;;;;;4954904;29;20476;-71
2023/06/11 16:04:39;;;;;;;1.30;1.30;;;28.60;45.20;;;;;;4954452;28;20476;-71
2023/06/11 16:07:06;;;;;;;0.97;0.97;;;28.50;45.20;;;;;;4950562;28;20831;-71
2023/06/11 16:09:33;;;;;;;1.30;1.30;;;28.50;44.90;;;;;;4948178;28;20496;-71
2023/06/11 16:12:00;;;;;;;1.43;1.43;;;28.50;45.60;;;;;;4950637;28;20470;-72
2023/06/11 16:14:27;;;;;;;1.10;1.10;;;28.50;44.70;;;;;;4947460;28;20476;-71
2023/06/11 16:16:55;;;;;;;1.23;1.23;;;28.50;44.80;;;;;;4954306;29;20497;-71
2023/06/11 16:19:22;;;;;;;2.67;1.13;;;28.30;44.70;;;;;;4953572;28;20512;-73
2023/06/11 16:21:48;;;;;;;1.90;1.30;;;28.30;44.60;;;;;;4961075;28;20469;-72
2023/06/11 16:24:15;;;;;;;1.50;1.40;;;28.20;44.90;;;;;;4954645;29;20463;-72
2023/06/11 16:26:42;;;;;;;1.80;1.50;;;28.10;44.80;;;;;;4953157;28;20477;-71
2023/06/11 16:29:09;;;;;;;0.93;0.93;;;28.30;45.00;;;;;;4953495;28;20857;-73
2023/06/11 16:31:35;;;;;;;1.03;1.03;;;28.30;44.90;;;;;;4942467;29;20477;-72
2023/06/11 16:34:03;;;;;;;1.60;1.20;;;28.40;44.80;;;;;;4947303;28;20516;-71
2023/06/11 16:36:30;;;;;;;0.63;0.63;;;28.40;44.70;;;;;;4954984;29;20472;-71
2023/06/11 16:38:59;;;;;;;1.20;1.10;;;28.30;45.00;;;;;;4948388;28;20489;-72
2023/06/11 16:41:26;;;;;;;1.80;1.50;;;28.20;45.20;;;;;;4953535;28;20553;-72
2023/06/11 16:43:53;;;;;;;1.20;1.20;;;28.30;45.00;;;;;;4951431;28;20552;-72
2023/06/11 16:46:20;;;;;;;2.70;1.30;;;28.20;45.00;;;;;;4950599;28;20473;-75
2023/06/11 16:48:50;;;;;;;1.20;1.20;;;28.20;44.40;;;;;;4954482;28;21063;-72